createdAt,value
2023-02-16T00:01:31.132Z,13.73
2023-02-16T00:03:58.464Z,12.77
2023-02-16T00:06:32.818Z,13.77
2023-02-16T00:09:00.210Z,13.13
2023-02-16T00:11:52.779Z,13.90
2023-02-16T00:14:44.250Z,13.17
2023-02-16T00:17:11.823Z,13.43
2023-02-16T00:19:40.908Z,14.17
2023-02-16T00:22:12.208Z,11.93
2023-02-16T00:24:39.268Z,12.63
2023-02-16T00:27:14.231Z,13.53
2023-02-16T00:29:55.736Z,13.97
2023-02-16T00:32:22.780Z,14.50
2023-02-16T00:34:49.938Z,14.30
2023-02-16T00:37:18.398Z,15.57
2023-02-16T00:39:46.630Z,15.53
2023-02-16T00:42:27.395Z,16.23
2023-02-16T00:44:58.425Z,16.43
2023-02-16T00:47:42.153Z,15.73
2023-02-16T00:50:21.165Z,15.17
2023-02-16T00:52:53.624Z,16.33
2023-02-16T00:55:24.892Z,16.93
2023-02-16T00:57:53.198Z,16.83
2023-02-16T01:00:35.370Z,16.90
2023-02-16T01:03:07.675Z,16.87
2023-02-16T01:05:35.036Z,15.63
2023-02-16T01:08:21.256Z,16.70
2023-02-16T01:11:06.108Z,16.77
2023-02-16T01:13:44.539Z,16.87
2023-02-16T01:16:23.103Z,16.00
2023-02-16T01:18:56.759Z,15.80
2023-02-16T01:21:27.124Z,15.73
2023-02-16T01:23:54.413Z,16.20
2023-02-16T01:26:35.746Z,17.57
2023-02-16T01:29:05.014Z,16.50
2023-02-16T01:31:35.193Z,16.80
2023-02-16T01:34:04.086Z,15.73
2023-02-16T01:36:37.347Z,15.70
2023-02-16T01:39:07.382Z,16.50
2023-02-16T01:41:58.624Z,15.53
2023-02-16T01:44:42.367Z,16.93
2023-02-16T01:47:35.068Z,16.57
2023-02-16T01:50:38.842Z,17.10
2023-02-16T01:53:42.329Z,16.13
2023-02-16T01:56:41.900Z,15.43
2023-02-16T01:59:41.830Z,16.07
2023-02-16T02:02:23.758Z,16.23
2023-02-16T02:05:35.810Z,15.73
2023-02-16T02:08:39.170Z,15.87
2023-02-16T02:11:24.381Z,16.67
2023-02-16T02:14:12.468Z,16.23
2023-02-16T02:17:14.854Z,16.57
2023-02-16T02:19:46.660Z,16.87
2023-02-16T02:26:14.439Z,16.70
2023-02-16T02:29:13.186Z,18.00
2023-02-16T02:32:16.834Z,16.33
2023-02-16T02:35:28.820Z,15.27
2023-02-16T02:38:25.706Z,15.87
2023-02-16T02:41:00.034Z,15.33
2023-02-16T02:44:16.727Z,15.17
2023-02-16T02:47:11.145Z,15.20
2023-02-16T02:49:45.935Z,16.03
2023-02-16T02:52:19.316Z,15.00
2023-02-16T02:55:45.103Z,16.13
2023-02-16T03:01:23.933Z,16.40
2023-02-16T03:04:02.717Z,15.87
2023-02-16T03:09:47.587Z,15.60
2023-02-16T03:13:19.780Z,15.50
2023-02-16T03:29:44.374Z,13.97
2023-02-16T03:32:14.798Z,15.70
2023-02-16T03:34:42.157Z,14.63
2023-02-16T03:37:09.972Z,15.07
2023-02-16T03:43:17.860Z,16.30
2023-02-16T03:46:37.986Z,16.43
2023-02-16T03:49:05.151Z,14.73
2023-02-16T03:51:32.308Z,14.33
2023-02-16T03:54:16.779Z,14.60
2023-02-16T03:56:43.976Z,14.93
2023-02-16T03:59:11.286Z,14.57
2023-02-16T04:02:07.445Z,15.97
2023-02-16T04:04:34.775Z,15.80
2023-02-16T04:07:02.193Z,14.63
2023-02-16T04:10:10.836Z,15.70
2023-02-16T04:12:40.417Z,15.80
2023-02-16T04:19:34.396Z,15.90
2023-02-16T04:25:48.758Z,14.97
2023-02-16T04:28:34.705Z,15.10
2023-02-16T04:31:02.428Z,14.97
2023-02-16T04:33:29.897Z,15.53
2023-02-16T04:35:57.245Z,16.33
2023-02-16T04:38:27.253Z,16.00
2023-02-16T04:41:10.970Z,15.30
2023-02-16T04:43:40.638Z,14.77
2023-02-16T04:46:07.949Z,13.93
2023-02-16T04:48:54.110Z,14.37
2023-02-16T04:51:23.573Z,13.50
2023-02-16T04:53:50.942Z,13.00
2023-02-16T04:56:49.563Z,13.50
2023-02-16T04:59:20.290Z,13.80
2023-02-16T05:02:21.821Z,14.33
2023-02-16T05:08:30.451Z,14.40
2023-02-16T05:11:18.223Z,14.60
2023-02-16T05:16:54.966Z,14.03
2023-02-16T05:19:28.302Z,14.20
2023-02-16T05:22:01.318Z,14.17
2023-02-16T05:24:33.906Z,13.63
2023-02-16T05:27:20.733Z,14.67
2023-02-16T05:29:49.115Z,14.37
2023-02-16T05:32:17.466Z,14.80
2023-02-16T05:34:47.359Z,15.30
2023-02-16T05:37:15.866Z,15.97
2023-02-16T05:43:30.790Z,13.60
2023-02-16T05:46:50.492Z,14.47
2023-02-16T05:49:18.242Z,14.00
2023-02-16T05:51:45.929Z,14.23
2023-02-16T05:54:51.344Z,15.87
2023-02-16T05:57:18.414Z,14.03
2023-02-16T05:59:45.758Z,14.03
2023-02-16T06:02:51.968Z,16.13
2023-02-16T06:05:21.792Z,13.80
2023-02-16T06:07:48.857Z,14.17
2023-02-16T06:11:18.378Z,13.30
2023-02-16T06:13:45.427Z,13.27
2023-02-16T06:16:12.695Z,13.43
2023-02-16T06:19:08.623Z,15.50
2023-02-16T06:21:36.494Z,14.60
2023-02-16T06:24:03.809Z,14.27
2023-02-16T06:30:12.678Z,14.60
2023-02-16T06:36:21.400Z,15.07
2023-02-16T06:39:31.394Z,13.30
2023-02-16T06:42:03.662Z,13.03
2023-02-16T06:44:31.293Z,13.07
2023-02-16T06:47:12.649Z,14.37
2023-02-16T06:49:39.869Z,12.80
2023-02-16T06:52:07.690Z,14.33
2023-02-16T06:58:22.608Z,15.43
2023-02-16T07:00:49.837Z,13.60
2023-02-16T07:03:21.131Z,15.30
2023-02-16T07:06:34.202Z,15.67
2023-02-16T07:09:01.367Z,14.20
2023-02-16T07:11:28.637Z,15.07
2023-02-16T07:13:57.816Z,15.70
2023-02-16T07:16:36.367Z,15.57
2023-02-16T07:19:08.252Z,14.57
2023-02-16T07:21:36.412Z,15.03
2023-02-16T07:24:43.464Z,16.10
2023-02-16T07:27:10.475Z,15.67
2023-02-16T07:29:37.677Z,14.80
2023-02-16T07:32:13.663Z,15.20
2023-02-16T07:34:40.892Z,14.77
2023-02-16T07:37:08.221Z,15.63
2023-02-16T07:39:59.527Z,15.73
2023-02-16T07:42:33.310Z,14.47
2023-02-16T07:45:01.390Z,15.23
2023-02-16T07:47:28.420Z,15.97
2023-02-16T07:50:07.576Z,14.87
2023-02-16T07:52:35.053Z,15.37
2023-02-16T07:55:14.421Z,15.53
2023-02-16T07:57:41.531Z,15.90
2023-02-16T08:00:09.291Z,17.33
2023-02-16T08:02:36.376Z,16.43
2023-02-16T08:05:03.480Z,19.70
2023-02-16T08:07:52.140Z,19.50
2023-02-16T08:10:19.194Z,19.63
2023-02-16T08:12:46.650Z,19.33
2023-02-16T08:15:16.185Z,18.43
2023-02-16T08:17:43.627Z,17.90
2023-02-16T08:20:11.387Z,15.67
2023-02-16T08:22:38.347Z,14.87
2023-02-16T08:25:07.008Z,13.40
2023-02-16T08:27:38.548Z,12.97
2023-02-16T08:30:06.248Z,21.77
2023-02-16T08:32:33.494Z,13.97
2023-02-16T08:35:00.837Z,13.83
2023-02-16T08:37:28.782Z,13.40
2023-02-16T08:39:56.415Z,13.23
2023-02-16T08:42:23.410Z,14.10
2023-02-16T08:44:50.313Z,13.60
2023-02-16T08:47:19.624Z,14.90
2023-02-16T08:49:47.123Z,14.90
2023-02-16T08:52:14.517Z,13.90
2023-02-16T08:54:41.542Z,14.83
2023-02-16T08:57:08.704Z,15.40
2023-02-16T08:59:35.664Z,16.30
2023-02-16T09:02:03.067Z,15.80
2023-02-16T09:04:30.271Z,15.93
2023-02-16T09:06:58.686Z,15.33
2023-02-16T09:09:26.685Z,14.73
2023-02-16T09:11:54.271Z,15.63
2023-02-16T09:14:23.155Z,15.40
2023-02-16T09:16:50.288Z,14.63
2023-02-16T09:19:21.521Z,16.00
2023-02-16T09:21:50.938Z,15.13
2023-02-16T09:24:18.024Z,14.23
2023-02-16T09:26:45.322Z,15.10
2023-02-16T09:29:14.157Z,14.67
2023-02-16T09:31:42.651Z,15.03
2023-02-16T09:34:20.508Z,15.33
2023-02-16T09:36:48.339Z,29.90
2023-02-16T09:39:17.145Z,15.30
2023-02-16T09:41:52.678Z,20.53
2023-02-16T09:44:28.426Z,15.40
2023-02-16T09:46:58.877Z,40.73
2023-02-16T09:49:40.135Z,14.40
2023-02-16T09:52:27.385Z,16.03
2023-02-16T09:55:00.018Z,17.93
2023-02-16T09:57:46.074Z,14.97
2023-02-16T10:00:34.025Z,93.03
2023-02-16T10:03:18.906Z,37.37
2023-02-16T10:05:58.873Z,24.33
2023-02-16T10:08:32.536Z,50.63
2023-02-16T10:11:32.415Z,28.47
2023-02-16T10:14:09.326Z,12.03
2023-02-16T10:16:47.055Z,12.20
2023-02-16T10:19:33.128Z,12.43
2023-02-16T10:22:05.359Z,15.47
2023-02-16T10:24:59.778Z,12.23
2023-02-16T10:27:40.524Z,12.00
2023-02-16T10:30:17.151Z,12.32
2023-02-16T10:32:56.779Z,12.13
2023-02-16T10:35:47.155Z,12.68
2023-02-16T10:38:38.781Z,11.23
2023-02-16T10:41:30.603Z,12.67
2023-02-16T10:44:40.325Z,10.75
2023-02-16T10:47:30.446Z,11.00
2023-02-16T10:49:57.947Z,11.80
2023-02-16T10:52:26.095Z,11.07
2023-02-16T10:54:53.030Z,11.75
2023-02-16T10:57:29.599Z,10.48
2023-02-16T10:59:59.588Z,11.65
2023-02-16T11:02:34.096Z,10.13
2023-02-16T11:05:01.820Z,11.00
2023-02-16T11:07:30.337Z,10.05
2023-02-16T11:10:01.450Z,9.20
2023-02-16T11:12:40.200Z,10.43
2023-02-16T11:15:25.107Z,9.25
2023-02-16T11:18:04.991Z,9.35
2023-02-16T11:20:53.220Z,9.35
2023-02-16T11:23:32.692Z,8.48
2023-02-16T11:26:06.867Z,9.73
2023-02-16T11:28:39.542Z,10.45
2023-02-16T11:31:21.090Z,7.88
2023-02-16T11:33:58.720Z,8.32
2023-02-16T11:36:44.042Z,8.07
2023-02-16T11:39:14.174Z,8.60
2023-02-16T11:41:53.758Z,10.65
2023-02-16T11:44:39.884Z,7.75
2023-02-16T11:47:21.228Z,8.10
2023-02-16T11:49:49.210Z,7.25
2023-02-16T11:52:29.661Z,8.18
2023-02-16T11:55:02.070Z,7.43
2023-02-16T11:57:29.728Z,7.95
2023-02-16T11:59:57.745Z,7.88
2023-02-16T12:02:24.613Z,7.60
2023-02-16T12:05:03.051Z,6.88
2023-02-16T12:07:42.573Z,7.05
2023-02-16T12:10:15.252Z,6.68
2023-02-16T12:12:48.687Z,8.23
2023-02-16T12:15:15.894Z,6.90
2023-02-16T12:18:01.545Z,6.50
2023-02-16T12:20:37.684Z,7.97
2023-02-16T12:23:23.287Z,9.55
2023-02-16T12:26:04.707Z,7.50
2023-02-16T12:28:38.925Z,6.32
2023-02-16T12:31:22.353Z,6.43
2023-02-16T12:33:55.261Z,6.97
2023-02-16T12:36:28.456Z,6.25
2023-02-16T12:39:08.786Z,6.90
2023-02-16T12:41:38.910Z,6.70
2023-02-16T12:44:19.277Z,6.40
2023-02-16T12:46:50.879Z,7.32
2023-02-16T12:49:43.027Z,7.28
2023-02-16T12:52:28.754Z,7.10
2023-02-16T12:55:09.005Z,6.50
2023-02-16T12:57:36.584Z,6.93
2023-02-16T13:00:05.538Z,6.57
2023-02-16T13:02:43.526Z,7.22
2023-02-16T13:05:33.190Z,7.28
2023-02-16T13:08:16.898Z,7.00
2023-02-16T13:11:04.967Z,6.70
2023-02-16T13:13:34.702Z,7.13
2023-02-16T13:16:30.988Z,6.97
2023-02-16T13:18:58.376Z,7.72
2023-02-16T13:21:55.276Z,6.88
2023-02-16T13:24:47.142Z,7.35
2023-02-16T13:27:42.579Z,6.57
2023-02-16T13:31:00.242Z,8.15
2023-02-16T13:33:37.615Z,7.00
2023-02-16T13:36:26.248Z,6.47
2023-02-16T13:39:15.113Z,6.63
2023-02-16T13:41:44.891Z,7.10
2023-02-16T13:44:42.391Z,6.25
2023-02-16T13:47:16.888Z,6.32
2023-02-16T13:49:44.932Z,7.30
2023-02-16T13:52:32.994Z,6.60
2023-02-16T13:55:03.370Z,6.68
2023-02-16T13:57:52.706Z,6.20
2023-02-16T14:00:53.173Z,6.15
2023-02-16T14:03:23.008Z,6.70
2023-02-16T14:05:59.106Z,6.47
2023-02-16T14:08:34.089Z,7.05
2023-02-16T14:11:10.344Z,6.28
2023-02-16T14:13:37.246Z,7.70
2023-02-16T14:16:10.533Z,8.18
2023-02-16T14:18:56.409Z,9.85
2023-02-16T14:21:45.465Z,9.32
2023-02-16T14:24:24.274Z,6.85
2023-02-16T14:26:54.965Z,6.15
2023-02-16T14:29:28.175Z,6.05
2023-02-16T14:32:03.524Z,7.28
2023-02-16T14:34:38.501Z,5.63
2023-02-16T14:37:17.662Z,6.10
2023-02-16T14:40:07.057Z,7.45
2023-02-16T14:42:36.134Z,7.43
2023-02-16T14:45:06.044Z,6.90
2023-02-16T14:47:47.681Z,6.68
2023-02-16T14:50:38.552Z,6.72
2023-02-16T14:53:23.228Z,6.50
2023-02-16T14:56:03.263Z,6.60
2023-02-16T14:58:56.395Z,7.10
2023-02-16T15:01:24.179Z,7.18
2023-02-16T15:03:54.726Z,6.75
2023-02-16T15:06:39.479Z,6.80
2023-02-16T15:09:15.908Z,7.45
2023-02-16T15:12:13.872Z,6.68
2023-02-16T15:14:51.830Z,6.65
2023-02-16T15:17:34.571Z,7.50
2023-02-16T15:20:09.249Z,6.88
2023-02-16T15:22:43.829Z,11.00
2023-02-16T15:25:23.400Z,7.68
2023-02-16T15:28:16.310Z,7.60
2023-02-16T15:30:57.420Z,9.85
2023-02-16T15:33:24.423Z,7.15
2023-02-16T15:36:00.952Z,7.30
2023-02-16T15:38:31.884Z,8.38
2023-02-16T15:41:05.067Z,6.28
2023-02-16T15:43:38.575Z,7.15
2023-02-16T15:46:08.088Z,7.00
2023-02-16T15:48:38.716Z,7.20
2023-02-16T15:51:15.644Z,11.98
2023-02-16T15:53:48.272Z,12.55
2023-02-16T15:56:24.269Z,7.00
2023-02-16T15:58:51.654Z,7.03
2023-02-16T16:01:35.381Z,6.47
2023-02-16T16:04:24.562Z,5.45
2023-02-16T16:06:52.630Z,8.38
2023-02-16T16:09:32.756Z,12.15
2023-02-16T16:12:10.839Z,6.30
2023-02-16T16:14:48.612Z,5.72
2023-02-16T16:17:18.762Z,6.55
2023-02-16T16:19:46.067Z,6.10
2023-02-16T16:22:33.119Z,6.90
2023-02-16T16:25:01.252Z,6.03
2023-02-16T16:27:37.335Z,5.50
2023-02-16T16:30:15.584Z,7.45
2023-02-16T16:32:42.896Z,6.67
2023-02-16T16:35:48.875Z,7.43
2023-02-16T16:38:28.448Z,6.70
2023-02-16T16:40:58.709Z,6.10
2023-02-16T16:43:31.842Z,5.32
2023-02-16T16:46:21.644Z,5.13
2023-02-16T16:48:51.244Z,8.13
2023-02-16T16:51:40.639Z,9.77
2023-02-16T16:54:11.388Z,6.60
2023-02-16T16:56:40.566Z,8.30
2023-02-16T16:59:07.882Z,7.73
2023-02-16T17:01:35.130Z,6.70
2023-02-16T17:04:02.212Z,6.45
2023-02-16T17:06:29.346Z,6.80
2023-02-16T17:08:56.376Z,6.20
2023-02-16T17:11:33.552Z,5.70
2023-02-16T17:14:16.779Z,5.77
2023-02-16T17:16:47.222Z,5.73
2023-02-16T17:19:15.714Z,5.40
2023-02-16T17:21:43.197Z,6.30
2023-02-16T17:24:13.096Z,7.47
2023-02-16T17:26:40.444Z,6.00
2023-02-16T17:29:08.464Z,7.00
2023-02-16T17:31:35.866Z,7.10
2023-02-16T17:34:03.072Z,6.90
2023-02-16T17:36:30.288Z,6.37
2023-02-16T17:38:57.599Z,6.33
2023-02-16T17:41:28.467Z,6.30
2023-02-16T17:43:55.828Z,6.67
2023-02-16T17:46:23.684Z,7.43
2023-02-16T17:48:53.997Z,7.57
2023-02-16T17:51:23.429Z,9.17
2023-02-16T17:53:50.507Z,9.60
2023-02-16T17:56:21.037Z,9.57
2023-02-16T17:58:48.402Z,9.23
2023-02-16T18:01:16.933Z,9.50
2023-02-16T18:03:44.032Z,9.50
2023-02-16T18:06:16.427Z,10.00
2023-02-16T18:08:44.233Z,10.83
2023-02-16T18:11:11.947Z,11.17
2023-02-16T18:13:39.734Z,10.47
2023-02-16T18:16:08.198Z,8.93
2023-02-16T18:18:36.931Z,9.23
2023-02-16T18:21:04.393Z,8.23
2023-02-16T18:23:31.817Z,8.47
2023-02-16T18:25:58.938Z,9.00
2023-02-16T18:28:28.501Z,8.87
2023-02-16T18:30:55.739Z,8.83
2023-02-16T18:33:23.935Z,8.50
2023-02-16T18:35:56.429Z,9.03
2023-02-16T18:38:23.914Z,9.33
2023-02-16T18:40:52.931Z,8.30
2023-02-16T18:43:21.140Z,8.90
2023-02-16T18:45:48.162Z,8.67
2023-02-16T18:48:15.200Z,8.03
2023-02-16T18:50:42.230Z,8.57
2023-02-16T18:53:09.197Z,7.00
2023-02-16T18:55:36.211Z,6.83
2023-02-16T18:58:07.763Z,7.60
2023-02-16T19:00:36.116Z,6.70
2023-02-16T19:03:03.819Z,7.30
2023-02-16T19:05:31.060Z,8.23
2023-02-16T19:07:58.061Z,8.00
2023-02-16T19:10:25.240Z,7.83
2023-02-16T19:12:52.373Z,7.80
2023-02-16T19:15:19.565Z,7.57
2023-02-16T19:17:46.549Z,7.17
2023-02-16T19:20:18.082Z,6.47
2023-02-16T19:22:46.908Z,7.67
2023-02-16T19:25:14.457Z,8.17
2023-02-16T19:27:41.647Z,7.37
2023-02-16T19:30:09.001Z,5.57
2023-02-16T19:32:36.767Z,5.47
2023-02-16T19:35:03.862Z,6.10
2023-02-16T19:37:30.945Z,6.67
2023-02-16T19:39:57.966Z,7.30
2023-02-16T19:42:24.945Z,7.03
2023-02-16T19:44:51.942Z,6.00
2023-02-16T19:47:19.102Z,6.40
2023-02-16T19:49:49.103Z,6.53
2023-02-16T19:52:17.143Z,7.40
2023-02-16T19:54:44.120Z,5.93
2023-02-16T19:57:11.162Z,5.93
2023-02-16T19:59:38.318Z,5.37
2023-02-16T20:02:05.388Z,5.43
2023-02-16T20:04:32.371Z,6.33
2023-02-16T20:06:59.329Z,6.60
2023-02-16T20:09:26.237Z,6.73
2023-02-16T20:11:54.660Z,7.87
2023-02-16T20:14:21.655Z,6.70
2023-02-16T20:16:50.548Z,5.57
2023-02-16T20:19:17.930Z,6.27
2023-02-16T20:21:46.426Z,6.20
2023-02-16T20:24:15.116Z,7.10
2023-02-16T20:26:44.888Z,6.77
2023-02-16T20:29:16.227Z,6.47
2023-02-16T20:32:05.167Z,5.50
2023-02-16T20:34:32.385Z,6.23
2023-02-16T20:36:59.783Z,6.77
2023-02-16T20:39:26.984Z,5.80
2023-02-16T20:41:54.005Z,6.53
2023-02-16T20:44:22.612Z,7.20
2023-02-16T20:46:49.674Z,7.77
2023-02-16T20:49:17.066Z,8.43
2023-02-16T20:51:44.693Z,8.20
2023-02-16T20:54:12.142Z,7.93
2023-02-16T20:56:39.437Z,7.93
2023-02-16T20:59:06.436Z,9.60
2023-02-16T21:01:37.476Z,10.27
2023-02-16T21:04:06.513Z,13.17
2023-02-16T21:06:34.613Z,9.67
2023-02-16T21:09:01.819Z,8.07
2023-02-16T21:11:28.823Z,11.77
2023-02-16T21:13:58.372Z,8.63
2023-02-16T21:16:25.821Z,10.00
2023-02-16T21:18:52.924Z,8.33
2023-02-16T21:21:20.430Z,8.50
2023-02-16T21:23:50.120Z,7.77
2023-02-16T21:26:18.660Z,8.13
2023-02-16T21:28:45.743Z,12.20
2023-02-16T21:31:16.274Z,8.17
2023-02-16T21:33:43.384Z,8.53
2023-02-16T21:36:12.893Z,9.20
2023-02-16T21:38:40.667Z,10.43
2023-02-16T21:41:27.743Z,8.30
2023-02-16T21:44:02.089Z,7.60
2023-02-16T21:46:40.505Z,7.37
2023-02-16T21:49:11.387Z,7.30
2023-02-16T21:51:40.293Z,6.53
2023-02-16T21:54:14.490Z,6.93
2023-02-16T21:56:51.678Z,7.67
2023-02-16T21:59:19.938Z,6.50
2023-02-16T22:01:51.247Z,6.27
2023-02-16T22:04:21.884Z,6.20
2023-02-16T22:06:50.462Z,5.47
2023-02-16T22:09:19.877Z,6.03
2023-02-16T22:11:47.653Z,6.17
2023-02-16T22:14:14.849Z,6.00
2023-02-16T22:16:44.134Z,6.50
2023-02-16T22:19:16.882Z,6.10
2023-02-16T22:21:45.375Z,6.30
2023-02-16T22:24:14.032Z,6.33
2023-02-16T22:26:41.544Z,7.80
2023-02-16T22:29:08.963Z,7.77
2023-02-16T22:31:36.685Z,8.63
2023-02-16T22:34:06.895Z,7.60
2023-02-16T22:36:35.748Z,9.00
2023-02-16T22:39:02.693Z,10.57
2023-02-16T22:41:29.660Z,8.50
2023-02-16T22:43:59.268Z,7.53
2023-02-16T22:46:27.323Z,8.00
2023-02-16T22:48:55.959Z,9.13
2023-02-16T22:51:22.944Z,6.10
2023-02-16T22:53:49.955Z,7.63
2023-02-16T22:56:18.705Z,8.77
2023-02-16T22:58:46.358Z,10.33
2023-02-16T23:01:15.190Z,7.83
2023-02-16T23:03:42.927Z,6.47
2023-02-16T23:06:15.137Z,10.23
2023-02-16T23:08:44.318Z,5.17
2023-02-16T23:11:12.123Z,5.03
2023-02-16T23:13:39.119Z,9.43
2023-02-16T23:16:12.592Z,6.00
2023-02-16T23:18:40.143Z,4.70
2023-02-16T23:21:17.398Z,8.67
2023-02-16T23:23:45.659Z,6.93
2023-02-16T23:26:12.975Z,6.23
2023-02-16T23:28:41.767Z,5.53
2023-02-16T23:31:09.142Z,7.07
2023-02-16T23:33:36.598Z,7.03
2023-02-16T23:36:03.815Z,4.83
2023-02-16T23:38:31.259Z,5.47
2023-02-16T23:41:10.762Z,5.83
2023-02-16T23:43:38.280Z,5.23
2023-02-16T23:46:06.145Z,5.07
2023-02-16T23:48:34.022Z,4.97
2023-02-16T23:51:01.063Z,4.40
2023-02-16T23:53:28.750Z,4.63
2023-02-16T23:55:59.708Z,4.37
2023-02-16T23:58:32.942Z,4.10
